createdAt,value
2022-09-06T00:01:17.071Z,101595.81
2022-09-06T00:03:45.845Z,101594.28
2022-09-06T00:06:15.885Z,101588.03
2022-09-06T00:08:45.915Z,101585.44
2022-09-06T00:11:14.525Z,101584.13
2022-09-06T00:13:42.304Z,101586.41
2022-09-06T00:16:11.998Z,101583.44
2022-09-06T00:18:40.127Z,101579.94
2022-09-06T00:21:16.615Z,101570.50
2022-09-06T00:23:45.869Z,101581.72
2022-09-06T00:26:13.862Z,101571.22
2022-09-06T00:28:41.865Z,101581.63
2022-09-06T00:31:11.358Z,101583.91
2022-09-06T00:33:39.364Z,101586.97
2022-09-06T00:36:07.632Z,101577.25
2022-09-06T00:38:35.508Z,101577.28
2022-09-06T00:41:04.773Z,101573.38
2022-09-06T00:43:32.896Z,101574.34
2022-09-06T00:46:01.137Z,101578.53
2022-09-06T00:48:29.138Z,101577.16
2022-09-06T00:51:00.033Z,101569.38
2022-09-06T00:53:28.071Z,101563.00
2022-09-06T00:55:56.011Z,101559.50
2022-09-06T00:58:25.694Z,101554.84
2022-09-06T01:00:54.006Z,101568.34
2022-09-06T01:03:23.118Z,101566.97
2022-09-06T01:05:57.841Z,101555.38
2022-09-06T01:08:32.183Z,101553.91
2022-09-06T01:11:14.638Z,101551.31
2022-09-06T01:13:50.193Z,101555.38
2022-09-06T01:16:34.320Z,101554.78
2022-09-06T01:19:17.208Z,101557.81
2022-09-06T01:21:50.213Z,101561.97
2022-09-06T01:24:46.154Z,101570.53
2022-09-06T01:27:46.598Z,101565.38
2022-09-06T01:30:18.044Z,101571.56
2022-09-06T01:32:52.299Z,101573.72
2022-09-06T01:35:28.734Z,101572.16
2022-09-06T01:37:56.726Z,101570.22
2022-09-06T01:40:24.542Z,101569.59
2022-09-06T01:42:53.208Z,101570.56
2022-09-06T01:45:24.556Z,101575.44
2022-09-06T01:48:07.307Z,101574.47
2022-09-06T01:50:48.795Z,101561.69
2022-09-06T01:53:30.212Z,101570.34
2022-09-06T01:56:01.512Z,101560.44
2022-09-06T01:58:42.545Z,101558.69
2022-09-06T02:01:21.105Z,101553.03
2022-09-06T02:03:54.087Z,101560.31
2022-09-06T02:06:24.859Z,101553.72
2022-09-06T02:08:55.144Z,101555.75
2022-09-06T02:11:23.419Z,101558.91
2022-09-06T02:13:53.545Z,101548.50
2022-09-06T02:16:25.448Z,101551.34
2022-09-06T02:18:56.208Z,101556.72
2022-09-06T02:21:31.670Z,101557.34
2022-09-06T02:24:03.100Z,101557.22
2022-09-06T02:26:33.979Z,101560.41
2022-09-06T02:29:03.140Z,101570.03
2022-09-06T02:31:35.053Z,101558.53
2022-09-06T02:34:03.011Z,101550.78
2022-09-06T02:36:31.128Z,101546.91
2022-09-06T02:39:01.004Z,101550.06
2022-09-06T02:41:30.938Z,101547.38
2022-09-06T02:43:58.786Z,101552.63
2022-09-06T02:46:26.663Z,101551.13
2022-09-06T02:48:55.789Z,101545.47
2022-09-06T02:51:23.529Z,101548.56
2022-09-06T02:53:51.319Z,101547.44
2022-09-06T02:56:19.112Z,101541.69
2022-09-06T02:58:46.999Z,101538.53
2022-09-06T03:01:14.887Z,101537.31
2022-09-06T03:03:42.713Z,101529.19
2022-09-06T03:06:11.768Z,101534.94
2022-09-06T03:08:39.561Z,101527.38
2022-09-06T03:11:07.433Z,101528.19
2022-09-06T03:13:35.533Z,101526.72
2022-09-06T03:16:03.753Z,101530.72
2022-09-06T03:18:32.343Z,101525.09
2022-09-06T03:21:00.238Z,101525.44
2022-09-06T03:23:30.208Z,101526.03
2022-09-06T03:25:58.244Z,101534.69
2022-09-06T03:28:26.188Z,101540.56
2022-09-06T03:30:54.260Z,101530.25
2022-09-06T03:33:22.647Z,101529.56
2022-09-06T03:35:51.156Z,101526.47
2022-09-06T03:38:19.365Z,101536.81
2022-09-06T03:40:49.398Z,101532.38
2022-09-06T03:43:18.366Z,101535.19
2022-09-06T03:45:47.010Z,101530.31
2022-09-06T03:48:15.375Z,101525.31
2022-09-06T03:50:46.612Z,101518.88
2022-09-06T03:53:15.138Z,101518.75
2022-09-06T03:55:45.765Z,101518.69
2022-09-06T03:58:14.988Z,101519.13
2022-09-06T04:00:42.739Z,101512.75
2022-09-06T04:03:10.546Z,101516.41
2022-09-06T04:05:38.344Z,101519.94
2022-09-06T04:08:06.570Z,101520.56
2022-09-06T04:10:34.712Z,101518.91
2022-09-06T04:13:02.432Z,101520.56
2022-09-06T04:15:31.532Z,101517.84
2022-09-06T04:17:59.318Z,101514.00
2022-09-06T04:20:27.163Z,101514.56
2022-09-06T04:22:54.909Z,101519.72
2022-09-06T04:25:22.681Z,101510.78
2022-09-06T04:27:50.492Z,101512.09
2022-09-06T04:30:18.287Z,101498.22
2022-09-06T04:32:47.415Z,101493.91
2022-09-06T04:35:15.396Z,101489.50
2022-09-06T04:37:43.205Z,101491.16
2022-09-06T04:40:11.854Z,101496.59
2022-09-06T04:42:39.716Z,101500.09
2022-09-06T04:45:08.592Z,101487.59
2022-09-06T04:47:36.379Z,101486.25
2022-09-06T04:50:06.414Z,101485.16
2022-09-06T04:52:34.179Z,101491.16
2022-09-06T04:55:01.963Z,101483.53
2022-09-06T04:57:29.691Z,101482.97
2022-09-06T04:59:57.436Z,101492.53
2022-09-06T05:02:25.289Z,101488.69
2022-09-06T05:04:53.562Z,101499.34
2022-09-06T05:07:22.719Z,101498.25
2022-09-06T05:09:50.488Z,101493.88
2022-09-06T05:12:18.245Z,101500.38
2022-09-06T05:14:46.020Z,101509.13
2022-09-06T05:17:15.168Z,101514.56
2022-09-06T05:19:42.892Z,101511.00
2022-09-06T05:22:11.936Z,101505.31
2022-09-06T05:24:41.035Z,101509.41
2022-09-06T05:27:08.844Z,101515.38
2022-09-06T05:29:36.552Z,101511.84
2022-09-06T05:32:04.326Z,101511.03
2022-09-06T05:34:32.177Z,101514.56
2022-09-06T05:36:59.989Z,101521.38
2022-09-06T05:39:27.741Z,101515.38
2022-09-06T05:41:56.845Z,101513.47
2022-09-06T05:44:24.675Z,101509.66
2022-09-06T05:46:53.491Z,101504.47
2022-09-06T05:49:21.240Z,101500.94
2022-09-06T05:51:51.846Z,101503.13
2022-09-06T05:54:19.657Z,101514.56
2022-09-06T05:56:47.449Z,101513.75
2022-09-06T05:59:16.901Z,101502.59
2022-09-06T06:01:48.947Z,101500.13
2022-09-06T06:04:18.493Z,101503.41
2022-09-06T06:06:46.780Z,101510.22
2022-09-06T06:09:14.840Z,101507.50
2022-09-06T06:11:43.100Z,101508.56
2022-09-06T06:14:11.078Z,101508.31
2022-09-06T06:16:40.238Z,101511.00
2022-09-06T06:19:08.079Z,101509.41
2022-09-06T06:21:37.264Z,101505.06
2022-09-06T06:24:06.716Z,101500.66
2022-09-06T06:26:36.611Z,101498.22
2022-09-06T06:29:08.056Z,101499.34
2022-09-06T06:31:37.299Z,101500.66
2022-09-06T06:34:06.648Z,101499.88
2022-09-06T06:36:35.616Z,101511.84
2022-09-06T06:39:08.329Z,101509.66
2022-09-06T06:41:36.144Z,101510.19
2022-09-06T06:44:05.274Z,101503.13
2022-09-06T06:46:34.647Z,101500.94
2022-09-06T06:49:04.154Z,101497.66
2022-09-06T06:51:35.989Z,101494.44
2022-09-06T06:54:04.499Z,101493.88
2022-09-06T06:56:34.609Z,101493.91
2022-09-06T06:59:04.280Z,101490.63
2022-09-06T07:01:33.383Z,101491.72
2022-09-06T07:04:03.481Z,101490.63
2022-09-06T07:09:21.081Z,101483.53
2022-09-06T07:11:49.601Z,101477.25
2022-09-06T07:14:17.542Z,101480.25
2022-09-06T07:16:45.455Z,101487.34
2022-09-06T07:22:05.355Z,101494.69
2022-09-06T07:24:33.713Z,101493.59
2022-09-06T07:29:50.800Z,101496.06
2022-09-06T07:32:19.803Z,101489.53
2022-09-06T07:34:47.555Z,101484.91
2022-09-06T07:37:16.824Z,101480.00
2022-09-06T07:39:44.659Z,101475.91
2022-09-06T07:42:12.424Z,101481.66
2022-09-06T07:44:40.174Z,101481.09
2022-09-06T07:53:20.508Z,101495.50
2022-09-06T07:55:33.715Z,101494.94
2022-09-06T07:58:02.956Z,101486.78
2022-09-06T08:00:31.608Z,101497.97
2022-09-06T08:02:59.868Z,101497.66
2022-09-06T08:11:06.352Z,101498.22
2022-09-06T08:13:34.369Z,101507.75
2022-09-06T08:16:03.240Z,101513.47
2022-09-06T08:18:31.047Z,101508.06
2022-09-06T08:21:11.551Z,101518.91
2022-09-06T08:23:43.610Z,101520.00
2022-09-06T08:26:11.910Z,101515.59
2022-09-06T08:28:39.758Z,101506.16
2022-09-06T08:31:09.556Z,101515.06
2022-09-06T08:33:37.567Z,101516.41
2022-09-06T08:36:05.858Z,101510.06
2022-09-06T08:38:33.954Z,101504.28
2022-09-06T08:41:11.506Z,101497.75
2022-09-06T08:43:40.099Z,101494.06
2022-09-06T08:46:08.924Z,101500.28
2022-09-06T08:48:39.608Z,101495.66
2022-09-06T08:51:41.145Z,101498.88
2022-09-06T08:54:13.724Z,101494.75
2022-09-06T08:57:03.429Z,101494.44
2022-09-06T08:59:37.643Z,101498.91
2022-09-06T09:02:11.542Z,101495.22
2022-09-06T09:04:43.673Z,101494.19
2022-09-06T09:07:25.204Z,101501.09
2022-09-06T09:09:53.547Z,101506.19
2022-09-06T09:12:24.480Z,101504.03
2022-09-06T09:14:54.883Z,101508.97
2022-09-06T09:17:26.430Z,101511.56
2022-09-06T09:19:54.178Z,101501.81
2022-09-06T09:22:21.977Z,101497.94
2022-09-06T09:24:51.702Z,101500.94
2022-09-06T09:27:22.509Z,101503.78
2022-09-06T09:32:50.897Z,101492.53
2022-09-06T09:35:26.942Z,101480.00
2022-09-06T09:38:07.781Z,101482.56
2022-09-06T09:40:41.542Z,101471.44
2022-09-06T09:43:16.205Z,101467.50
2022-09-06T09:45:45.013Z,101445.72
2022-09-06T09:48:22.116Z,101437.56
2022-09-06T09:50:50.969Z,101440.56
2022-09-06T09:53:22.081Z,101431.56
2022-09-06T09:55:50.459Z,101430.97
2022-09-06T09:58:31.703Z,101426.06
2022-09-06T10:01:11.883Z,101421.88
2022-09-06T10:09:19.755Z,101416.75
2022-09-06T10:11:55.444Z,101417.09
2022-09-06T10:14:29.867Z,101416.94
2022-09-06T10:16:58.976Z,101410.84
2022-09-06T10:19:45.620Z,101413.63
2022-09-06T10:22:24.365Z,101415.81
2022-09-06T10:25:21.956Z,101417.19
2022-09-06T10:28:11.071Z,101419.38
2022-09-06T10:30:45.944Z,101416.47
2022-09-06T10:33:21.610Z,101411.06
2022-09-06T10:35:49.389Z,101408.19
2022-09-06T10:38:30.436Z,101405.34
2022-09-06T10:41:05.848Z,101399.81
2022-09-06T10:43:43.667Z,101397.56
2022-09-06T10:46:18.648Z,101397.69
2022-09-06T10:48:47.053Z,101390.22
2022-09-06T10:51:23.708Z,101388.47
2022-09-06T10:53:54.254Z,101399.41
2022-09-06T10:56:25.713Z,101388.38
2022-09-06T11:01:56.000Z,101387.50
2022-09-06T11:04:27.287Z,101380.09
2022-09-06T11:06:58.617Z,101371.63
2022-09-06T11:09:30.277Z,101376.03
2022-09-06T11:12:04.615Z,101384.53
2022-09-06T11:14:32.592Z,101379.53
2022-09-06T11:17:05.455Z,101377.72
2022-09-06T11:19:38.893Z,101373.97
2022-09-06T11:22:50.061Z,101386.91
2022-09-06T11:25:59.117Z,101381.28
2022-09-06T11:28:32.821Z,101379.38
2022-09-06T11:31:00.791Z,101381.00
2022-09-06T11:33:31.537Z,101385.75
2022-09-06T11:36:17.635Z,101383.50
2022-09-06T11:38:55.604Z,101388.16
2022-09-06T11:41:28.921Z,101390.66
2022-09-06T11:43:56.829Z,101391.94
2022-09-06T11:46:59.555Z,101387.84
2022-09-06T11:49:39.077Z,101398.63
2022-09-06T11:52:59.108Z,101386.91
2022-09-06T11:55:33.605Z,101389.34
2022-09-06T11:58:04.070Z,101383.16
2022-09-06T12:00:32.510Z,101382.09
2022-09-06T12:06:16.787Z,101375.66
2022-09-06T12:08:44.993Z,101367.13
2022-09-06T12:11:37.652Z,101353.34
2022-09-06T12:14:07.093Z,101362.97
2022-09-06T12:17:27.462Z,101358.84
2022-09-06T12:20:06.293Z,101356.25
2022-09-06T12:22:55.172Z,101342.09
2022-09-06T12:26:05.541Z,101344.84
2022-09-06T12:28:42.412Z,101346.13
2022-09-06T12:31:38.070Z,101349.81
2022-09-06T12:34:13.568Z,101337.47
2022-09-06T12:36:54.518Z,101344.03
2022-09-06T12:39:24.229Z,101329.91
2022-09-06T12:41:54.965Z,101324.59
2022-09-06T12:44:29.407Z,101321.50
2022-09-06T12:47:03.370Z,101307.69
2022-09-06T12:49:31.103Z,101312.13
2022-09-06T12:52:07.937Z,101313.25
2022-09-06T12:54:43.429Z,101308.53
2022-09-06T12:57:16.196Z,101301.47
2022-09-06T12:59:54.651Z,101302.38
2022-09-06T13:02:31.170Z,101295.56
2022-09-06T13:05:05.304Z,101301.06
2022-09-06T13:07:35.336Z,101306.72
2022-09-06T13:10:05.078Z,101297.44
2022-09-06T13:12:34.639Z,101301.78
2022-09-06T13:15:06.476Z,101304.81
2022-09-06T13:17:35.416Z,101308.53
2022-09-06T13:20:12.462Z,101311.53
2022-09-06T13:22:43.311Z,101314.25
2022-09-06T13:25:25.080Z,101309.25
2022-09-06T13:27:57.631Z,101303.69
2022-09-06T13:30:37.710Z,101311.53
2022-09-06T13:33:07.114Z,101303.69
2022-09-06T13:35:38.133Z,101309.16
2022-09-06T13:38:23.266Z,101331.25
2022-09-06T13:43:44.875Z,101317.88
2022-09-06T13:46:12.892Z,101319.81
2022-09-06T13:48:41.540Z,101318.69
2022-09-06T13:51:10.916Z,101326.75
2022-09-06T13:53:38.683Z,101313.03
2022-09-06T13:56:08.471Z,101316.25
2022-09-06T13:58:36.783Z,101316.97
2022-09-06T14:01:05.021Z,101312.41
2022-09-06T14:03:33.486Z,101304.75
2022-09-06T14:06:01.592Z,101302.41
2022-09-06T14:08:43.819Z,101310.50
2022-09-06T14:11:19.360Z,101306.28
2022-09-06T14:13:47.832Z,101310.06
2022-09-06T14:16:15.644Z,101318.91
2022-09-06T14:18:43.593Z,101322.97
2022-09-06T14:21:11.624Z,101316.38
2022-09-06T14:23:39.492Z,101321.56
2022-09-06T14:26:07.264Z,101311.53
2022-09-06T14:28:36.404Z,101306.16
2022-09-06T14:31:11.895Z,101298.34
2022-09-06T14:33:39.716Z,101289.34
2022-09-06T14:36:10.023Z,101294.44
2022-09-06T14:38:38.956Z,101295.47
2022-09-06T14:41:07.869Z,101296.41
2022-09-06T14:43:37.703Z,101295.63
2022-09-06T14:46:06.759Z,101292.88
2022-09-06T14:48:38.184Z,101289.28
2022-09-06T14:51:10.249Z,101276.19
2022-09-06T14:53:41.361Z,101282.03
2022-09-06T14:56:10.088Z,101268.34
2022-09-06T14:58:40.695Z,101268.50
2022-09-06T15:01:11.552Z,101272.81
2022-09-06T15:03:40.175Z,101266.19
2022-09-06T15:06:08.991Z,101264.25
2022-09-06T15:08:37.666Z,101260.75
2022-09-06T15:11:08.074Z,101256.38
2022-09-06T15:13:37.082Z,101254.63
2022-09-06T15:16:06.671Z,101252.88
2022-09-06T15:18:35.028Z,101246.94
2022-09-06T15:21:09.705Z,101251.09
2022-09-06T15:23:37.630Z,101248.72
2022-09-06T15:26:07.650Z,101241.25
2022-09-06T15:28:35.620Z,101238.69
2022-09-06T15:31:03.413Z,101240.69
2022-09-06T15:33:34.029Z,101246.66
2022-09-06T15:36:05.976Z,101240.50
2022-09-06T15:38:33.666Z,101238.81
2022-09-06T15:41:08.108Z,101241.72
2022-09-06T15:43:36.835Z,101245.47
2022-09-06T15:46:04.652Z,101235.94
2022-09-06T15:48:41.057Z,101231.34
2022-09-06T15:51:08.918Z,101241.25
2022-09-06T15:53:36.646Z,101229.25
2022-09-06T15:56:04.803Z,101227.13
2022-09-06T15:58:32.956Z,101233.72
2022-09-06T16:01:05.574Z,101232.63
2022-09-06T16:03:36.917Z,101230.50
2022-09-06T16:08:58.280Z,101233.38
2022-09-06T16:11:26.701Z,101225.47
2022-09-06T16:13:54.526Z,101228.38
2022-09-06T16:16:22.571Z,101230.03
2022-09-06T16:18:53.031Z,101217.25
2022-09-06T16:21:23.840Z,101219.34
2022-09-06T16:23:53.507Z,101211.19
2022-09-06T16:26:21.970Z,101210.31
2022-09-06T16:28:51.150Z,101210.16
2022-09-06T16:31:19.967Z,101208.06
2022-09-06T16:33:48.752Z,101215.69
2022-09-06T16:36:19.021Z,101219.59
2022-09-06T16:38:47.145Z,101205.31
2022-09-06T16:41:18.066Z,101220.75
2022-09-06T16:43:46.112Z,101225.16
2022-09-06T16:46:14.465Z,101217.03
2022-09-06T16:48:42.376Z,101210.84
2022-09-06T16:51:12.036Z,101206.19
2022-09-06T16:53:42.771Z,101206.75
2022-09-06T16:56:11.100Z,101205.22
2022-09-06T16:58:41.666Z,101202.41
2022-09-06T17:01:10.030Z,101206.19
2022-09-06T17:03:38.396Z,101209.38
2022-09-06T17:06:07.489Z,101211.88
2022-09-06T17:08:36.449Z,101202.78
2022-09-06T17:11:08.544Z,101205.72
2022-09-06T17:13:36.927Z,101198.03
2022-09-06T17:16:22.889Z,101191.94
2022-09-06T17:18:52.483Z,101188.22
2022-09-06T17:21:20.611Z,101190.97
2022-09-06T17:23:49.015Z,101190.59
2022-09-06T17:26:19.507Z,101186.75
2022-09-06T17:28:47.202Z,101188.72
2022-09-06T17:31:15.642Z,101185.63
2022-09-06T17:33:43.520Z,101178.94
2022-09-06T17:36:12.984Z,101187.13
2022-09-06T17:38:41.131Z,101185.91
2022-09-06T17:41:09.125Z,101189.00
2022-09-06T17:43:38.617Z,101193.03
2022-09-06T17:46:06.560Z,101185.88
2022-09-06T17:48:34.920Z,101194.94
2022-09-06T17:51:06.913Z,101203.69
2022-09-06T17:53:35.909Z,101192.47
2022-09-06T17:56:05.043Z,101187.31
2022-09-06T17:58:33.250Z,101182.16
2022-09-06T18:01:04.911Z,101187.09
2022-09-06T18:03:32.861Z,101189.84
2022-09-06T18:06:05.113Z,101179.97
2022-09-06T18:08:32.803Z,101183.28
2022-09-06T18:11:00.691Z,101190.53
2022-09-06T18:13:30.392Z,101179.88
2022-09-06T18:15:58.255Z,101183.44
2022-09-06T18:18:28.133Z,101172.19
2022-09-06T18:20:55.882Z,101178.59
2022-09-06T18:23:23.581Z,101178.06
2022-09-06T18:25:56.904Z,101185.50
2022-09-06T18:28:25.059Z,101187.88
2022-09-06T18:30:53.967Z,101194.44
2022-09-06T18:33:23.521Z,101190.25
2022-09-06T18:35:52.683Z,101190.06
2022-09-06T18:38:21.400Z,101190.69
2022-09-06T18:40:53.338Z,101193.56
2022-09-06T18:43:22.357Z,101195.34
2022-09-06T18:45:50.416Z,101202.34
2022-09-06T18:48:18.402Z,101200.94
2022-09-06T18:50:46.276Z,101200.59
2022-09-06T18:53:18.098Z,101198.72
2022-09-06T18:55:45.800Z,101190.38
2022-09-06T18:58:14.077Z,101197.28
2022-09-06T19:00:42.122Z,101196.94
2022-09-06T19:03:10.231Z,101196.91
2022-09-06T19:05:38.300Z,101203.19
2022-09-06T19:08:06.307Z,101205.97
2022-09-06T19:10:35.541Z,101205.22
2022-09-06T19:13:05.463Z,101211.63
2022-09-06T19:15:33.546Z,101212.94
2022-09-06T19:18:02.935Z,101208.88
2022-09-06T19:20:30.627Z,101205.72
2022-09-06T19:22:58.312Z,101208.09
2022-09-06T19:25:26.012Z,101206.09
2022-09-06T19:27:55.033Z,101202.13
2022-09-06T19:30:22.819Z,101202.44
2022-09-06T19:32:50.497Z,101195.69
2022-09-06T19:35:19.568Z,101194.97
2022-09-06T19:37:47.590Z,101191.34
2022-09-06T19:40:15.352Z,101185.97
2022-09-06T19:42:44.644Z,101188.84
2022-09-06T19:45:13.882Z,101185.75
2022-09-06T19:47:41.563Z,101191.63
2022-09-06T19:50:09.516Z,101185.66
2022-09-06T19:52:37.217Z,101181.53
2022-09-06T19:55:05.895Z,101177.34
2022-09-06T19:57:33.557Z,101175.84
2022-09-06T20:00:03.049Z,101174.44
2022-09-06T20:02:32.202Z,101178.56
2022-09-06T20:04:59.915Z,101168.25
2022-09-06T20:07:28.392Z,101163.00
2022-09-06T20:09:56.872Z,101173.44
2022-09-06T20:12:24.541Z,101174.28
2022-09-06T20:14:52.552Z,101167.97
2022-09-06T20:17:33.354Z,101166.41
2022-09-06T20:20:03.112Z,101169.34
2022-09-06T20:22:30.941Z,101171.41
2022-09-06T20:24:58.697Z,101170.31
2022-09-06T20:27:26.495Z,101175.47
2022-09-06T20:29:54.232Z,101174.91
2022-09-06T20:32:21.944Z,101171.78
2022-09-06T20:34:49.624Z,101163.59
2022-09-06T20:37:18.660Z,101174.75
2022-09-06T20:39:46.367Z,101160.41
2022-09-06T20:42:14.056Z,101162.34
2022-09-06T20:44:41.765Z,101154.22
2022-09-06T20:47:09.577Z,101153.19
2022-09-06T20:49:37.391Z,101155.31
2022-09-06T20:52:05.483Z,101153.53
2022-09-06T20:54:34.529Z,101147.66
2022-09-06T20:57:04.476Z,101149.03
2022-09-06T20:59:32.175Z,101145.31
2022-09-06T21:01:59.874Z,101137.75
2022-09-06T21:04:27.704Z,101137.31
2022-09-06T21:06:55.504Z,101141.53
2022-09-06T21:09:23.796Z,101128.31
2022-09-06T21:11:54.145Z,101127.44
2022-09-06T21:14:22.649Z,101122.88
2022-09-06T21:16:50.479Z,101122.63
2022-09-06T21:19:18.444Z,101115.38
2022-09-06T21:21:46.128Z,101120.38
2022-09-06T21:24:13.966Z,101120.03
2022-09-06T21:26:43.604Z,101113.50
2022-09-06T21:29:12.676Z,101108.47
2022-09-06T21:31:40.408Z,101110.38
2022-09-06T21:34:15.470Z,101110.03
2022-09-06T21:36:44.315Z,101109.06
2022-09-06T21:39:13.093Z,101115.28
2022-09-06T21:41:42.446Z,101108.41
2022-09-06T21:44:12.030Z,101103.84
2022-09-06T21:46:40.640Z,101111.06
2022-09-06T21:49:10.863Z,101114.78
2022-09-06T21:51:39.038Z,101108.28
2022-09-06T21:54:06.913Z,101108.06
2022-09-06T21:56:35.788Z,101104.75
2022-09-06T21:59:04.600Z,101104.00
2022-09-06T22:01:35.295Z,101106.00
2022-09-06T22:04:05.899Z,101102.59
2022-09-06T22:06:34.868Z,101097.28
2022-09-06T22:09:04.825Z,101091.97
2022-09-06T22:11:33.957Z,101079.16
2022-09-06T22:14:04.108Z,101080.84
2022-09-06T22:16:34.507Z,101087.78
2022-09-06T22:19:04.609Z,101079.38
2022-09-06T22:21:32.680Z,101083.22
2022-09-06T22:24:03.081Z,101084.19
2022-09-06T22:26:32.657Z,101079.34
2022-09-06T22:29:03.508Z,101083.41
2022-09-06T22:31:33.895Z,101079.94
2022-09-06T22:34:03.111Z,101069.50
2022-09-06T22:36:30.989Z,101073.25
2022-09-06T22:38:58.897Z,101068.72
2022-09-06T22:41:27.931Z,101071.75
2022-09-06T22:43:55.972Z,101073.63
2022-09-06T22:46:23.970Z,101082.78
2022-09-06T22:48:53.080Z,101087.91
2022-09-06T22:51:20.791Z,101085.66
2022-09-06T22:53:48.535Z,101081.94
2022-09-06T22:56:16.248Z,101068.66
2022-09-06T22:58:43.935Z,101060.41
2022-09-06T23:01:13.744Z,101063.81
2022-09-06T23:03:42.124Z,101054.53
2022-09-06T23:06:11.622Z,101056.75
2022-09-06T23:08:40.488Z,101049.56
2022-09-06T23:11:09.824Z,101053.97
2022-09-06T23:13:37.744Z,101060.31
2022-09-06T23:16:10.126Z,101051.53
2022-09-06T23:18:37.843Z,101044.47
2022-09-06T23:21:06.987Z,101039.31
2022-09-06T23:23:36.651Z,101031.53
2022-09-06T23:26:06.030Z,101034.66
2022-09-06T23:28:33.785Z,101036.00
2022-09-06T23:31:03.552Z,101029.22
2022-09-06T23:33:31.696Z,101030.75
2022-09-06T23:35:59.400Z,101025.84
2022-09-06T23:38:27.109Z,101032.97
2022-09-06T23:40:56.292Z,101032.84
2022-09-06T23:43:24.232Z,101034.41
2022-09-06T23:45:51.954Z,101035.16
2022-09-06T23:48:19.764Z,101033.22
2022-09-06T23:50:47.709Z,101033.97
2022-09-06T23:53:16.906Z,101026.28
2022-09-06T23:55:44.754Z,101017.47
2022-09-06T23:58:14.036Z,101009.88
